Time;durP1;ratioP1;P1;durP2;ratioP2;P2;SDS_P1;SDS_P2;PMS_P1;PMS_P2;Temp;Humidity;BMP_temperature;BMP_pressure;BME280_temperature;BME280_humidity;BME280_pressure;Samples;Min_cycle;Max_cycle;Signal;HPM_P1;HPM_P2
2022/06/29 00:02:18;;;;;;;9.47;5.53;;;14.50;87.90;;;;;;5079616;28;20202;-87
2022/06/29 00:04:43;;;;;;;7.60;6.10;;;14.40;88.10;;;;;;5078568;28;20179;-87
2022/06/29 00:07:09;;;;;;;5.83;5.33;;;14.40;88.20;;;;;;5078807;28;20195;-87
2022/06/29 00:09:35;;;;;;;5.63;4.80;;;14.40;88.30;;;;;;5077137;28;20637;-88
2022/06/29 00:12:00;;;;;;;6.63;5.30;;;14.40;88.20;;;;;;5076779;28;20250;-87
2022/06/29 00:14:26;;;;;;;10.00;5.00;;;14.30;88.40;;;;;;5075538;28;20616;-86
2022/06/29 00:16:51;;;;;;;6.83;5.00;;;14.30;88.40;;;;;;5075798;28;20187;-87
2022/06/29 00:19:17;;;;;;;5.83;5.20;;;14.30;88.40;;;;;;5076445;28;20210;-89
2022/06/29 00:21:52;;;;;;;12.17;5.50;;;14.30;88.50;;;;;;5076926;28;20195;-88
2022/06/29 00:24:17;;;;;;;9.57;5.50;;;14.30;88.50;;;;;;5079356;28;20185;-89
2022/06/29 00:26:43;;;;;;;5.87;5.27;;;14.30;88.60;;;;;;5077472;28;20199;-88
2022/06/29 00:29:09;;;;;;;6.67;5.13;;;14.30;88.60;;;;;;5077306;28;20199;-88
2022/06/29 00:31:34;;;;;;;9.83;5.97;;;14.20;88.70;;;;;;5077445;28;20558;-88
2022/06/29 00:34:00;;;;;;;6.03;5.43;;;14.20;88.90;;;;;;5077206;28;20171;-88
2022/06/29 00:36:25;;;;;;;8.17;5.10;;;14.20;89.00;;;;;;5077589;28;20176;-89
2022/06/29 00:38:51;;;;;;;9.83;5.37;;;14.20;89.00;;;;;;5077000;28;20175;-88
2022/06/29 00:41:18;;;;;;;4.97;4.57;;;14.20;89.20;;;;;;5077016;28;20215;-87
2022/06/29 00:43:43;;;;;;;7.10;5.40;;;14.10;89.30;;;;;;5077332;28;20581;-88
2022/06/29 00:46:09;;;;;;;9.57;5.63;;;14.10;89.30;;;;;;5077187;28;20171;-87
2022/06/29 00:48:38;;;;;;;9.10;5.33;;;14.30;89.40;;;;;;5076999;28;20191;-87
2022/06/29 00:51:04;;;;;;;8.27;5.60;;;14.20;89.20;;;;;;5076908;28;20764;-88
2022/06/29 00:53:37;;;;;;;6.17;5.07;;;14.20;89.10;;;;;;5076788;28;20263;-88
2022/06/29 00:56:07;;;;;;;6.53;5.43;;;14.20;89.00;;;;;;5076886;28;20217;-88
2022/06/29 00:58:33;;;;;;;5.83;5.03;;;14.10;89.00;;;;;;5077160;28;20163;-89
2022/06/29 01:01:03;;;;;;;8.17;5.70;;;14.10;89.00;;;;;;5076805;28;20230;-88
2022/06/29 01:03:29;;;;;;;6.50;5.53;;;14.10;89.10;;;;;;5076636;28;20249;-88
2022/06/29 01:05:55;;;;;;;6.90;5.13;;;14.10;89.00;;;;;;5076489;28;20529;-88
2022/06/29 01:08:21;;;;;;;7.43;5.00;;;14.10;89.00;;;;;;5076803;28;20203;-88
2022/06/29 01:10:46;;;;;;;6.93;5.13;;;14.20;88.90;;;;;;5076597;28;20575;-87
2022/06/29 01:13:12;;;;;;;11.80;5.47;;;14.20;88.70;;;;;;5075303;28;20179;-88
2022/06/29 01:15:38;;;;;;;8.90;5.07;;;14.10;88.60;;;;;;5076430;28;20680;-88
2022/06/29 01:18:04;;;;;;;6.40;4.93;;;14.20;88.60;;;;;;5076220;28;20171;-87
2022/06/29 01:20:30;;;;;;;9.63;5.07;;;14.10;88.50;;;;;;5076257;28;20249;-88
2022/06/29 01:22:55;;;;;;;7.60;4.63;;;14.00;88.50;;;;;;5076277;28;20197;-88
2022/06/29 01:25:21;;;;;;;9.43;4.50;;;14.10;88.50;;;;;;5076132;28;20175;-88
2022/06/29 01:27:46;;;;;;;11.23;5.30;;;14.00;88.30;;;;;;5076019;28;20240;-88
2022/06/29 01:30:13;;;;;;;6.20;4.50;;;14.00;88.30;;;;;;5075998;28;20234;-87
2022/06/29 01:32:39;;;;;;;9.20;4.80;;;13.90;88.40;;;;;;5075933;28;20159;-88
2022/06/29 01:35:09;;;;;;;5.63;4.30;;;13.90;88.60;;;;;;5076044;28;20168;-87
2022/06/29 01:37:35;;;;;;;8.23;4.20;;;13.90;88.80;;;;;;5075924;28;20162;-87
2022/06/29 01:40:02;;;;;;;8.60;4.60;;;14.00;88.80;;;;;;5075886;28;20167;-87
2022/06/29 01:42:28;;;;;;;7.03;4.53;;;14.00;88.70;;;;;;5076043;28;20222;-88
2022/06/29 01:44:53;;;;;;;8.13;4.37;;;14.00;88.70;;;;;;5075998;28;20186;-87
2022/06/29 01:47:19;;;;;;;6.80;4.10;;;14.00;88.60;;;;;;5075743;28;20219;-87
2022/06/29 01:49:44;;;;;;;10.33;4.20;;;14.00;88.60;;;;;;5075909;28;20667;-88
2022/06/29 01:52:10;;;;;;;11.20;4.00;;;14.00;88.70;;;;;;5075721;28;20187;-87
2022/06/29 01:54:36;;;;;;;12.30;4.30;;;14.00;88.80;;;;;;5075490;28;20167;-87
2022/06/29 01:57:01;;;;;;;8.07;4.30;;;14.00;88.70;;;;;;5075156;28;20206;-86
2022/06/29 01:59:27;;;;;;;7.80;3.90;;;14.10;88.70;;;;;;5075324;28;20569;-87
2022/06/29 02:01:52;;;;;;;7.37;4.20;;;14.10;88.60;;;;;;5075472;28;20217;-87
2022/06/29 02:04:18;;;;;;;10.10;4.37;;;14.10;88.50;;;;;;5075280;28;20171;-87
2022/06/29 02:06:44;;;;;;;8.03;4.20;;;14.20;88.40;;;;;;5075070;28;20254;-87
2022/06/29 02:09:09;;;;;;;11.03;4.03;;;14.20;88.30;;;;;;5075098;28;20225;-87
2022/06/29 02:11:35;;;;;;;6.27;3.97;;;14.20;88.30;;;;;;5074946;28;20194;-87
2022/06/29 02:14:00;;;;;;;6.87;3.67;;;14.20;88.20;;;;;;5075027;28;20832;-87
2022/06/29 02:16:27;;;;;;;5.70;3.80;;;14.20;88.10;;;;;;5075086;28;20648;-86
2022/06/29 02:18:53;;;;;;;8.67;3.77;;;14.10;88.10;;;;;;5074868;28;20225;-87
2022/06/29 02:21:19;;;;;;;10.77;4.60;;;14.20;88.00;;;;;;5075011;28;20190;-86
2022/06/29 02:23:45;;;;;;;12.47;3.83;;;14.20;88.00;;;;;;5074905;28;20663;-87
2022/06/29 02:26:11;;;;;;;5.10;3.80;;;14.10;87.90;;;;;;5075016;28;20233;-86
2022/06/29 02:28:36;;;;;;;5.23;3.90;;;14.10;87.90;;;;;;5074541;28;20681;-87
2022/06/29 02:36:30;;;;;;;10.20;3.60;;;14.00;87.90;;;;;;5074875;28;20175;-88
2022/06/29 02:38:56;;;;;;;6.70;4.00;;;14.00;87.90;;;;;;5074869;28;20637;-88
2022/06/29 02:41:21;;;;;;;4.97;3.67;;;13.90;87.90;;;;;;5073501;28;20199;-88
2022/06/29 02:43:47;;;;;;;4.20;3.77;;;13.80;88.10;;;;;;5073868;28;20171;-88
2022/06/29 02:46:13;;;;;;;5.17;3.90;;;13.80;88.30;;;;;;5073534;28;20199;-86
2022/06/29 02:48:39;;;;;;;5.13;4.00;;;13.80;88.30;;;;;;5074770;28;20282;-87
2022/06/29 02:51:04;;;;;;;5.57;3.90;;;13.70;88.40;;;;;;5074422;28;20286;-87
2022/06/29 02:53:30;;;;;;;9.70;4.10;;;13.70;88.50;;;;;;5074462;28;20197;-88
2022/06/29 02:55:56;;;;;;;6.30;3.73;;;13.60;88.60;;;;;;5074791;28;20639;-86
2022/06/29 02:58:21;;;;;;;7.87;4.17;;;13.60;88.70;;;;;;5074485;28;20211;-87
2022/06/29 03:00:47;;;;;;;4.77;3.70;;;13.50;88.80;;;;;;5074301;28;20195;-87
2022/06/29 03:03:12;;;;;;;10.97;4.30;;;13.60;88.90;;;;;;5074338;28;20207;-87
2022/06/29 03:05:38;;;;;;;9.77;4.40;;;13.50;88.90;;;;;;5074348;28;20629;-87
2022/06/29 03:08:04;;;;;;;8.13;4.43;;;13.50;89.10;;;;;;5073940;28;20203;-87
2022/06/29 03:10:29;;;;;;;9.57;4.60;;;13.50;89.20;;;;;;5074622;28;20199;-87
2022/06/29 03:12:55;;;;;;;7.70;4.13;;;13.60;89.30;;;;;;5074408;28;20194;-87
2022/06/29 03:15:20;;;;;;;10.40;4.03;;;13.70;89.20;;;;;;5072731;28;20667;-88
2022/06/29 03:17:46;;;;;;;7.43;3.93;;;13.80;89.00;;;;;;5073854;28;20548;-87
2022/06/29 03:20:13;;;;;;;6.27;4.07;;;13.80;88.80;;;;;;5073966;28;20191;-87
2022/06/29 03:22:38;;;;;;;8.13;3.50;;;13.90;88.60;;;;;;5073997;28;20233;-87
2022/06/29 03:25:05;;;;;;;12.53;3.87;;;14.00;88.20;;;;;;5073963;28;20644;-88
2022/06/29 03:27:32;;;;;;;7.17;3.67;;;14.00;88.20;;;;;;5073665;28;20194;-87
2022/06/29 03:29:58;;;;;;;6.07;3.47;;;13.90;88.10;;;;;;5074181;28;20167;-87
2022/06/29 03:32:23;;;;;;;7.40;3.60;;;13.90;88.10;;;;;;5074136;28;20520;-87
2022/06/29 03:34:49;;;;;;;10.07;4.03;;;13.90;88.20;;;;;;5072525;28;20175;-87
2022/06/29 03:37:14;;;;;;;10.33;3.83;;;13.80;88.50;;;;;;5073648;28;20186;-87
2022/06/29 03:39:41;;;;;;;9.93;3.60;;;13.90;88.70;;;;;;5073606;28;20258;-87
2022/06/29 03:42:07;;;;;;;6.47;3.77;;;13.90;88.80;;;;;;5073561;28;20249;-87
2022/06/29 03:44:33;;;;;;;7.93;4.37;;;14.00;88.80;;;;;;5073554;28;20593;-88
2022/06/29 03:46:58;;;;;;;9.80;3.80;;;14.10;88.70;;;;;;5073881;28;20202;-87
2022/06/29 03:49:24;;;;;;;7.77;3.53;;;14.30;88.50;;;;;;5074354;28;20206;-88
2022/06/29 03:51:49;;;;;;;10.27;3.70;;;14.40;88.30;;;;;;5074007;28;20666;-87
2022/06/29 03:54:15;;;;;;;5.40;3.57;;;14.40;88.20;;;;;;5073582;28;20175;-87
2022/06/29 03:56:40;;;;;;;8.00;3.57;;;14.40;88.20;;;;;;5073378;28;20218;-88
2022/06/29 03:59:06;;;;;;;5.40;3.50;;;14.40;88.30;;;;;;5073713;28;20180;-88
2022/06/29 04:01:32;;;;;;;8.03;4.03;;;14.40;88.40;;;;;;5073681;28;20252;-87
2022/06/29 04:03:57;;;;;;;5.77;3.30;;;14.40;88.50;;;;;;5073818;28;20242;-88
2022/06/29 04:06:23;;;;;;;10.33;3.50;;;14.40;88.60;;;;;;5073567;28;20167;-88
2022/06/29 04:08:48;;;;;;;6.47;3.30;;;14.50;88.70;;;;;;5073450;28;20195;-88
2022/06/29 04:13:58;;;;;;;6.77;3.70;;;14.50;88.80;;;;;;5073973;28;20209;-88
2022/06/29 04:16:23;;;;;;;7.93;3.63;;;14.50;88.90;;;;;;5072450;28;20262;-88
2022/06/29 04:18:49;;;;;;;8.13;4.27;;;14.60;89.00;;;;;;5073443;28;20186;-87
2022/06/29 04:21:14;;;;;;;6.67;3.90;;;14.70;89.00;;;;;;5073953;28;20195;-88
2022/06/29 04:23:40;;;;;;;5.50;3.70;;;14.70;89.00;;;;;;5072823;28;20274;-87
2022/06/29 04:26:06;;;;;;;3.67;3.20;;;14.70;88.70;;;;;;5073404;28;20557;-88
2022/06/29 04:28:31;;;;;;;6.47;3.37;;;14.80;88.60;;;;;;5073559;28;20250;-88
2022/06/29 04:30:57;;;;;;;7.63;3.37;;;14.80;88.50;;;;;;5073629;28;20624;-87
2022/06/29 04:33:22;;;;;;;7.80;3.23;;;14.80;88.40;;;;;;5074058;28;20172;-88
2022/06/29 04:35:48;;;;;;;7.17;3.50;;;14.90;88.30;;;;;;5072303;28;20271;-87
2022/06/29 04:38:14;;;;;;;6.63;3.43;;;14.90;88.20;;;;;;5073818;28;20255;-88
2022/06/29 04:40:39;;;;;;;7.50;3.57;;;14.90;88.00;;;;;;5073717;28;20618;-89
2022/06/29 04:43:05;;;;;;;9.10;3.80;;;15.00;88.10;;;;;;5073927;28;20194;-87
2022/06/29 04:48:15;;;;;;;8.00;3.10;;;15.10;88.10;;;;;;5073967;28;20195;-88
2022/06/29 04:50:40;;;;;;;6.60;3.60;;;15.20;87.80;;;;;;5073550;28;20192;-88
2022/06/29 04:53:06;;;;;;;3.80;3.27;;;15.20;87.70;;;;;;5072247;28;20266;-88
2022/06/29 04:55:31;;;;;;;7.47;3.13;;;15.20;87.80;;;;;;5072100;28;20184;-88
2022/06/29 04:57:57;;;;;;;4.60;3.43;;;15.30;87.80;;;;;;5073093;28;20179;-87
2022/06/29 05:00:23;;;;;;;6.30;3.97;;;15.40;87.70;;;;;;5073557;28;20566;-88
2022/06/29 05:02:48;;;;;;;8.30;3.37;;;15.40;87.60;;;;;;5073376;28;20171;-88
2022/06/29 05:05:14;;;;;;;4.63;3.10;;;15.60;87.70;;;;;;5073299;28;20210;-88
2022/06/29 05:07:39;;;;;;;7.77;2.87;;;15.60;87.60;;;;;;5074333;28;20187;-88
2022/06/29 05:10:06;;;;;;;4.53;2.75;;;15.70;87.60;;;;;;5075369;28;20704;-88
2022/06/29 05:12:31;;;;;;;5.80;2.87;;;15.70;86.80;;;;;;5076707;28;20176;-88
2022/06/29 05:14:57;;;;;;;7.00;3.00;;;15.70;86.70;;;;;;5076658;28;20186;-88
2022/06/29 05:17:22;;;;;;;3.60;2.95;;;15.80;86.70;;;;;;5076538;28;20175;-87
2022/06/29 05:19:48;;;;;;;3.85;2.60;;;15.90;86.20;;;;;;5076532;28;20171;-85
2022/06/29 05:22:14;;;;;;;4.25;2.67;;;16.10;86.50;;;;;;5076303;28;20190;-88
2022/06/29 05:24:39;;;;;;;6.53;2.80;;;16.20;86.20;;;;;;5076596;28;20209;-87
2022/06/29 05:27:05;;;;;;;5.47;2.58;;;16.30;85.90;;;;;;5076222;28;20267;-88
2022/06/29 05:29:31;;;;;;;5.97;2.70;;;16.30;85.10;;;;;;5076339;28;20241;-88
2022/06/29 05:31:56;;;;;;;3.88;2.35;;;16.40;84.50;;;;;;5076031;28;20218;-87
2022/06/29 05:34:22;;;;;;;4.32;2.70;;;16.60;84.00;;;;;;5076230;28;20174;-87
2022/06/29 05:36:47;;;;;;;6.47;2.60;;;16.70;83.40;;;;;;5076528;28;20661;-88
2022/06/29 05:39:13;;;;;;;6.32;2.20;;;16.80;83.20;;;;;;5076311;28;20167;-88
2022/06/29 05:41:39;;;;;;;4.80;2.20;;;16.90;82.20;;;;;;5075044;28;20667;-88
2022/06/29 05:44:04;;;;;;;5.18;2.33;;;17.10;81.50;;;;;;5076398;28;20178;-89
2022/06/29 05:46:31;;;;;;;3.17;2.20;;;17.20;81.20;;;;;;5075720;28;20638;-87
2022/06/29 05:48:56;;;;;;;6.82;2.00;;;17.30;80.00;;;;;;5076356;28;20213;-88
2022/06/29 05:51:22;;;;;;;3.47;1.83;;;17.40;79.70;;;;;;5075812;28;20184;-88
2022/06/29 05:53:49;;;;;;;8.10;2.17;;;17.60;79.20;;;;;;5076347;28;20638;-87
2022/06/29 05:56:15;;;;;;;3.10;1.88;;;17.70;78.20;;;;;;5075735;28;20266;-88
2022/06/29 05:58:42;;;;;;;3.63;1.95;;;17.80;78.00;;;;;;5076769;28;20609;-88
2022/06/29 06:01:09;;;;;;;4.95;1.70;;;18.00;77.70;;;;;;5075486;28;20665;-88
2022/06/29 06:03:35;;;;;;;4.35;1.83;;;18.10;76.70;;;;;;5075940;28;20179;-88
2022/06/29 06:06:01;;;;;;;10.80;2.00;;;18.20;76.80;;;;;;5075682;28;20167;-87
2022/06/29 06:08:28;;;;;;;6.93;2.13;;;18.30;75.50;;;;;;5075503;28;20738;-88
2022/06/29 06:10:53;;;;;;;6.38;1.80;;;18.50;74.90;;;;;;5075718;28;20665;-88
2022/06/29 06:13:19;;;;;;;6.80;1.77;;;18.70;74.90;;;;;;5075406;28;20175;-88
2022/06/29 06:15:46;;;;;;;3.00;1.80;;;18.80;74.40;;;;;;5075814;28;20160;-88
2022/06/29 06:18:12;;;;;;;3.05;1.83;;;18.80;73.70;;;;;;5075441;28;20294;-89
2022/06/29 06:20:37;;;;;;;4.18;1.50;;;18.90;72.90;;;;;;5075242;28;20774;-89
2022/06/29 06:23:03;;;;;;;5.38;1.67;;;19.00;72.90;;;;;;5075294;28;20182;-88
2022/06/29 06:25:29;;;;;;;4.20;1.90;;;19.20;72.40;;;;;;5075855;28;20210;-88
2022/06/29 06:27:54;;;;;;;2.50;1.80;;;19.20;73.50;;;;;;5076133;28;20685;-89
2022/06/29 06:30:20;;;;;;;2.85;1.50;;;19.30;73.30;;;;;;5075847;28;20194;-89
2022/06/29 06:32:46;;;;;;;4.43;1.73;;;19.50;72.60;;;;;;5076672;28;20163;-88
2022/06/29 06:35:11;;;;;;;5.40;1.83;;;19.70;71.40;;;;;;5074999;28;20178;-89
2022/06/29 06:37:37;;;;;;;5.00;1.75;;;19.90;72.30;;;;;;5075569;28;20590;-89
2022/06/29 06:42:46;;;;;;;3.45;1.67;;;20.30;69.80;;;;;;5075410;28;20627;-88
2022/06/29 06:45:12;;;;;;;2.15;1.60;;;20.50;69.80;;;;;;5075502;28;20171;-88
2022/06/29 06:47:37;;;;;;;1.85;1.65;;;20.60;70.10;;;;;;5075158;28;20566;-88
2022/06/29 06:50:03;;;;;;;17.45;2.05;;;20.70;69.30;;;;;;5075482;28;20178;-88
2022/06/29 06:52:29;;;;;;;12.35;2.42;;;20.80;68.40;;;;;;5074732;28;20263;-88
2022/06/29 06:54:55;;;;;;;9.55;2.10;;;20.90;68.70;;;;;;5074567;28;20164;-88
2022/06/29 06:57:20;;;;;;;4.82;2.08;;;20.90;68.00;;;;;;5074558;28;20248;-88
2022/06/29 06:59:46;;;;;;;8.07;1.95;;;20.90;67.50;;;;;;5075015;28;20171;-88
2022/06/29 07:02:12;;;;;;;12.00;2.00;;;21.00;67.70;;;;;;5074108;28;20248;-88
2022/06/29 07:04:37;;;;;;;8.00;1.75;;;21.20;67.50;;;;;;5073709;28;20171;-90
2022/06/29 07:07:03;;;;;;;5.03;1.80;;;21.30;67.70;;;;;;5074144;28;20616;-86
2022/06/29 07:09:28;;;;;;;5.00;1.70;;;21.30;67.50;;;;;;5074744;28;20164;-87
2022/06/29 07:11:54;;;;;;;3.85;1.70;;;21.40;66.70;;;;;;5073827;28;20195;-87
2022/06/29 07:14:19;;;;;;;10.40;1.95;;;21.50;67.10;;;;;;5074221;28;20163;-87
2022/06/29 07:16:45;;;;;;;2.55;1.70;;;21.40;66.10;;;;;;5072837;28;20206;-87
2022/06/29 07:19:10;;;;;;;6.03;1.80;;;21.30;66.80;;;;;;5074504;28;20224;-87
2022/06/29 07:21:36;;;;;;;9.30;2.17;;;21.20;66.70;;;;;;5073781;28;20232;-86
2022/06/29 07:24:02;;;;;;;4.72;2.05;;;21.20;66.60;;;;;;5073871;28;20211;-88
2022/06/29 07:26:27;;;;;;;7.57;1.42;;;21.30;67.30;;;;;;5073840;28;20530;-88
2022/06/29 07:28:53;;;;;;;1.98;1.48;;;21.40;67.00;;;;;;5072276;28;20210;-88
2022/06/29 07:31:19;;;;;;;9.60;1.88;;;21.40;66.20;;;;;;5073211;28;20191;-88
2022/06/29 07:33:45;;;;;;;2.80;1.90;;;21.30;66.70;;;;;;5073488;28;20182;-88
2022/06/29 07:36:11;;;;;;;5.05;1.70;;;21.40;66.60;;;;;;5073432;28;20220;-87
2022/06/29 07:38:36;;;;;;;5.13;1.73;;;21.50;66.70;;;;;;5073376;28;20167;-88
2022/06/29 07:41:02;;;;;;;2.78;2.00;;;21.50;66.20;;;;;;5073691;28;20207;-88
2022/06/29 07:43:29;;;;;;;5.18;1.70;;;21.80;67.10;;;;;;5072168;28;20178;-88
2022/06/29 07:45:57;;;;;;;6.03;1.80;;;21.80;66.10;;;;;;5073304;28;20202;-88
2022/06/29 07:48:23;;;;;;;7.03;1.88;;;21.90;65.80;;;;;;5072167;28;20207;-88
2022/06/29 07:50:48;;;;;;;3.45;1.85;;;22.10;66.80;;;;;;5074560;28;20187;-88
2022/06/29 07:53:14;;;;;;;6.97;2.05;;;22.20;67.60;;;;;;5073284;28;20190;-89
2022/06/29 07:55:40;;;;;;;19.92;3.28;;;22.20;65.10;;;;;;5073324;28;20178;-89
2022/06/29 07:58:06;;;;;;;5.20;1.90;;;22.40;64.60;;;;;;5073078;28;20201;-88
2022/06/29 08:00:31;;;;;;;5.70;1.80;;;22.50;63.50;;;;;;5073342;28;20227;-88
2022/06/29 08:02:57;;;;;;;5.78;1.80;;;22.70;63.30;;;;;;5071963;28;20205;-89
2022/06/29 08:05:23;;;;;;;5.43;1.75;;;22.80;63.60;;;;;;5071995;28;20179;-89
2022/06/29 08:07:49;;;;;;;2.78;1.50;;;22.90;63.00;;;;;;5073471;28;20298;-88
2022/06/29 08:10:14;;;;;;;6.00;2.20;;;22.90;63.80;;;;;;5071855;28;20704;-89
2022/06/29 08:12:40;;;;;;;13.68;1.70;;;23.00;62.30;;;;;;5073246;28;20170;-89
2022/06/29 08:15:06;;;;;;;4.75;1.77;;;23.20;62.70;;;;;;5073213;28;20173;-88
2022/06/29 08:17:32;;;;;;;3.15;1.70;;;23.30;61.90;;;;;;5073027;28;20179;-87
2022/06/29 08:19:58;;;;;;;3.22;1.52;;;23.40;61.30;;;;;;5073308;28;20171;-89
2022/06/29 08:22:23;;;;;;;5.65;1.55;;;23.20;62.20;;;;;;5072985;28;20202;-89
2022/06/29 08:24:49;;;;;;;11.00;1.95;;;23.30;61.90;;;;;;5073250;28;20660;-88
2022/06/29 08:27:14;;;;;;;3.80;1.80;;;23.20;61.00;;;;;;5072935;28;20570;-88
2022/06/29 08:29:40;;;;;;;6.07;1.65;;;23.20;61.50;;;;;;5072881;28;20320;-88
2022/06/29 08:32:06;;;;;;;1.67;1.58;;;23.10;63.10;;;;;;5073122;28;20188;-88
2022/06/29 08:34:35;;;;;;;5.78;1.75;;;23.20;63.80;;;;;;5073107;28;20171;-89
2022/06/29 08:37:01;;;;;;;3.92;1.70;;;23.30;64.20;;;;;;5072898;28;20196;-89
2022/06/29 08:39:26;;;;;;;3.22;1.80;;;23.50;62.10;;;;;;5071652;28;20178;-87
2022/06/29 08:41:55;;;;;;;12.40;2.28;;;23.50;62.60;;;;;;5072908;28;20190;-89
2022/06/29 08:44:21;;;;;;;3.10;2.08;;;23.80;62.60;;;;;;5076790;28;20164;-89
2022/06/29 08:46:47;;;;;;;6.15;1.80;;;23.90;61.30;;;;;;5075436;28;20172;-87
2022/06/29 08:49:12;;;;;;;3.08;1.60;;;24.00;60.90;;;;;;5077263;28;20288;-90
2022/06/29 08:51:39;;;;;;;3.75;2.00;;;24.10;61.20;;;;;;5077184;28;20191;-91
2022/06/29 08:54:06;;;;;;;4.18;1.65;;;24.20;60.20;;;;;;5078162;28;20172;-92
2022/06/29 08:56:32;;;;;;;4.22;1.90;;;24.30;61.30;;;;;;5079016;28;20237;-91
2022/06/29 08:59:00;;;;;;;6.80;1.77;;;24.40;61.10;;;;;;5077408;28;20254;-91
2022/06/29 09:01:27;;;;;;;5.72;1.70;;;24.40;59.60;;;;;;5075258;28;20294;-89
2022/06/29 09:03:53;;;;;;;5.40;2.00;;;24.50;59.20;;;;;;5076340;28;20171;-85
2022/06/29 09:06:18;;;;;;;1.70;1.58;;;24.80;59.50;;;;;;5076325;28;20181;-89
2022/06/29 09:08:44;;;;;;;3.30;1.77;;;24.90;59.50;;;;;;5076229;28;20218;-87
2022/06/29 09:11:24;;;;;;;3.42;1.65;;;25.00;58.90;;;;;;5076143;28;20184;-88
2022/06/29 09:14:13;;;;;;;10.00;2.08;;;25.20;59.20;;;;;;5076456;28;20271;-85
2022/06/29 09:17:02;;;;;;;6.28;1.90;;;25.00;57.10;;;;;;5076444;28;20152;-83
2022/06/29 09:19:29;;;;;;;3.22;2.05;;;24.80;59.20;;;;;;5076590;28;20156;-83
2022/06/29 09:21:57;;;;;;;3.50;1.50;;;24.70;58.20;;;;;;5076448;28;20199;-84
2022/06/29 09:24:26;;;;;;;2.60;1.60;;;25.10;58.50;;;;;;5076637;28;20167;-84
2022/06/29 09:26:54;;;;;;;8.38;1.83;;;25.30;58.00;;;;;;5074737;28;20637;-85
2022/06/29 09:29:28;;;;;;;7.90;2.17;;;25.40;59.20;;;;;;5075724;28;20172;-86
2022/06/29 09:32:05;;;;;;;6.25;1.75;;;25.00;58.00;;;;;;5075960;28;20203;-85
2022/06/29 09:34:39;;;;;;;7.47;2.03;;;25.10;58.80;;;;;;5075774;28;20174;-86
2022/06/29 09:37:06;;;;;;;4.93;1.95;;;25.50;57.60;;;;;;5074615;28;20540;-86
2022/06/29 09:39:33;;;;;;;2.65;2.17;;;25.70;56.50;;;;;;5075814;28;20171;-86
2022/06/29 09:41:59;;;;;;;3.65;2.20;;;25.70;57.00;;;;;;5075755;28;20190;-86
2022/06/29 09:44:25;;;;;;;4.68;1.90;;;25.80;55.60;;;;;;5075503;28;20168;-86
2022/06/29 09:46:55;;;;;;;5.25;2.13;;;26.00;57.40;;;;;;5075298;28;20203;-85
2022/06/29 09:49:28;;;;;;;4.47;2.05;;;26.00;56.70;;;;;;5074036;28;20177;-86
2022/06/29 09:51:58;;;;;;;5.53;1.63;;;26.00;55.20;;;;;;5073984;28;20230;-86
2022/06/29 09:54:29;;;;;;;4.78;2.05;;;25.90;56.20;;;;;;5075033;28;20187;-86
2022/06/29 09:56:56;;;;;;;5.60;1.80;;;25.90;55.80;;;;;;5075063;28;20190;-85
2022/06/29 10:02:34;;;;;;;2.20;2.08;;;26.00;57.00;;;;;;5075655;28;20172;-85
2022/06/29 10:02:40;;;;;;;5.75;2.03;;;25.50;58.50;;;;;;5075302;28;20541;-85
2022/06/29 10:05:07;;;;;;;6.70;2.15;;;25.90;57.70;;;;;;5075102;28;20152;-86
2022/06/29 10:07:35;;;;;;;7.13;2.15;;;26.30;55.30;;;;;;5074846;28;20230;-85
2022/06/29 10:10:02;;;;;;;5.50;2.13;;;26.60;55.30;;;;;;5074863;28;20277;-85
2022/06/29 10:16:02;;;;;;;3.13;1.67;;;26.20;54.60;;;;;;5075065;28;20213;-85
2022/06/29 10:19:02;;;;;;;3.03;1.90;;;25.90;53.70;;;;;;5075091;28;20240;-85
2022/06/29 10:21:31;;;;;;;2.05;1.88;;;26.30;54.80;;;;;;5074700;28;20281;-86
2022/06/29 10:23:58;;;;;;;4.53;1.80;;;26.60;53.80;;;;;;5074668;28;20180;-85
2022/06/29 10:26:35;;;;;;;4.57;1.90;;;26.20;56.10;;;;;;5074931;28;20701;-86
2022/06/29 10:29:10;;;;;;;2.85;1.95;;;26.70;55.70;;;;;;5074467;28;20664;-85
2022/06/29 10:31:54;;;;;;;6.95;2.03;;;26.90;50.90;;;;;;5074375;28;20187;-86
2022/06/29 10:34:29;;;;;;;3.33;1.80;;;26.70;52.80;;;;;;5074771;28;20163;-86
2022/06/29 10:37:00;;;;;;;4.03;1.50;;;26.80;52.10;;;;;;5074488;28;20220;-85
2022/06/29 10:39:26;;;;;;;3.42;1.67;;;27.00;53.10;;;;;;5074368;28;20644;-86
2022/06/29 10:44:57;;;;;;;6.43;1.88;;;27.20;51.80;;;;;;5074301;28;20284;-85
2022/06/29 10:47:23;;;;;;;5.05;2.00;;;26.80;53.80;;;;;;5074138;28;20244;-85
2022/06/29 10:50:09;;;;;;;4.18;1.88;;;26.70;54.00;;;;;;5074321;28;20163;-85
2022/06/29 10:52:37;;;;;;;6.70;1.75;;;27.20;50.20;;;;;;5074205;28;20175;-85
2022/06/29 10:55:03;;;;;;;11.38;1.63;;;27.40;50.80;;;;;;5074047;28;20258;-86
2022/06/29 10:57:35;;;;;;;6.35;1.75;;;27.60;49.00;;;;;;5073852;28;20214;-87
2022/06/29 11:00:08;;;;;;;5.43;1.70;;;27.60;49.70;;;;;;5075624;28;20183;-86
2022/06/29 11:02:37;;;;;;;6.00;1.75;;;27.50;51.00;;;;;;5075826;28;20155;-86
2022/06/29 11:05:04;;;;;;;2.42;1.77;;;27.80;50.50;;;;;;5077445;28;20184;-85
2022/06/29 11:12:58;;;;;;;5.57;1.88;;;27.60;49.50;;;;;;5075435;28;20166;-86
2022/06/29 11:15:48;;;;;;;2.83;1.60;;;27.80;47.40;;;;;;5074257;28;20250;-87
2022/06/29 11:18:16;;;;;;;7.55;1.60;;;27.50;47.50;;;;;;5075120;28;20238;-87
2022/06/29 11:20:50;;;;;;;2.50;1.60;;;27.50;47.40;;;;;;5072610;28;20260;-86
2022/06/29 11:23:20;;;;;;;5.80;1.35;;;27.60;47.80;;;;;;5074019;28;20238;-88
2022/06/29 11:25:47;;;;;;;4.90;1.30;;;27.70;47.20;;;;;;5073635;28;20187;-88
2022/06/29 11:28:16;;;;;;;1.58;1.25;;;27.70;46.30;;;;;;5073486;28;20319;-88
2022/06/29 11:30:56;;;;;;;7.55;1.83;;;27.60;46.50;;;;;;5073525;28;20218;-88
2022/06/29 11:33:32;;;;;;;4.28;1.75;;;27.20;47.30;;;;;;5073555;28;20229;-87
2022/06/29 11:36:04;;;;;;;1.50;1.38;;;27.10;49.10;;;;;;5073487;28;20196;-88
2022/06/29 11:38:29;;;;;;;4.25;1.58;;;27.10;48.50;;;;;;5073530;28;20156;-88
2022/06/29 11:40:55;;;;;;;2.05;1.55;;;26.90;49.40;;;;;;5073358;28;20220;-88
2022/06/29 11:43:21;;;;;;;3.25;1.50;;;26.80;49.50;;;;;;5072121;28;20199;-88
2022/06/29 11:45:51;;;;;;;10.88;1.40;;;26.80;48.50;;;;;;5073296;28;20176;-88
2022/06/29 11:48:21;;;;;;;1.70;1.25;;;26.70;49.60;;;;;;5073171;28;20195;-87
2022/06/29 11:50:53;;;;;;;5.47;1.40;;;26.70;49.00;;;;;;5073421;28;20191;-87
2022/06/29 11:53:45;;;;;;;2.78;1.60;;;26.50;49.00;;;;;;5073554;28;20167;-87
2022/06/29 11:56:13;;;;;;;4.05;1.33;;;26.50;48.30;;;;;;5073060;28;20653;-88
2022/06/29 11:58:44;;;;;;;4.20;1.60;;;26.50;48.90;;;;;;5073485;28;20164;-88
2022/06/29 12:01:12;;;;;;;3.55;1.60;;;26.50;49.80;;;;;;5073106;28;20183;-87
2022/06/29 12:03:39;;;;;;;2.20;1.50;;;26.60;49.90;;;;;;5073176;28;20252;-88
2022/06/29 12:06:05;;;;;;;7.10;1.73;;;26.80;48.70;;;;;;5073092;28;20167;-88
2022/06/29 12:08:31;;;;;;;2.10;1.35;;;27.00;48.10;;;;;;5071896;28;20285;-88
2022/06/29 12:10:57;;;;;;;2.65;1.60;;;27.00;48.90;;;;;;5073230;28;20262;-87
2022/06/29 12:13:24;;;;;;;4.25;1.65;;;27.30;48.60;;;;;;5071886;28;20172;-88
2022/06/29 12:15:50;;;;;;;3.83;1.58;;;27.70;48.70;;;;;;5073096;28;20186;-88
2022/06/29 12:18:16;;;;;;;4.85;1.92;;;28.10;45.50;;;;;;5077399;28;20171;-88
2022/06/29 12:20:43;;;;;;;6.18;2.00;;;28.40;46.00;;;;;;5076991;28;20245;-88
2022/06/29 12:23:09;;;;;;;1.92;1.65;;;28.70;44.70;;;;;;5077008;28;20197;-87
2022/06/29 12:25:35;;;;;;;5.07;1.80;;;28.40;43.50;;;;;;5077057;28;20167;-88
2022/06/29 12:28:02;;;;;;;3.97;1.45;;;28.40;44.60;;;;;;5077214;28;20233;-87
2022/06/29 12:30:27;;;;;;;2.63;1.35;;;28.80;45.20;;;;;;5075634;28;20287;-87
2022/06/29 12:32:53;;;;;;;6.55;2.00;;;28.80;41.30;;;;;;5076878;28;20254;-88
2022/06/29 12:35:18;;;;;;;3.92;1.65;;;28.80;43.80;;;;;;5076808;28;20217;-88
2022/06/29 12:37:44;;;;;;;3.25;1.20;;;28.80;41.90;;;;;;5075552;28;20182;-87
2022/06/29 12:40:13;;;;;;;2.40;1.50;;;28.10;44.60;;;;;;5076695;28;20195;-88
2022/06/29 12:42:39;;;;;;;2.25;1.40;;;28.10;43.10;;;;;;5076645;28;20594;-88
2022/06/29 12:45:06;;;;;;;2.13;1.60;;;27.90;45.10;;;;;;5076646;28;20256;-88
2022/06/29 12:47:32;;;;;;;1.45;1.20;;;27.80;43.30;;;;;;5076499;28;20568;-88
2022/06/29 12:49:57;;;;;;;1.60;1.50;;;27.80;45.10;;;;;;5076376;28;20301;-88
2022/06/29 12:52:24;;;;;;;2.45;1.70;;;27.70;44.80;;;;;;5076409;28;20168;-88
2022/06/29 12:54:49;;;;;;;4.53;1.50;;;27.70;45.30;;;;;;5076494;28;20547;-88
2022/06/29 12:57:18;;;;;;;1.65;1.50;;;27.60;45.80;;;;;;5076235;28;20199;-88
2022/06/29 12:59:44;;;;;;;4.60;1.52;;;27.80;46.90;;;;;;5076309;28;20270;-88
2022/06/29 13:02:09;;;;;;;2.85;1.48;;;27.80;47.00;;;;;;5076279;28;20677;-88
2022/06/29 13:04:35;;;;;;;1.40;1.30;;;27.90;45.90;;;;;;5076448;28;20175;-88
2022/06/29 13:07:02;;;;;;;3.35;1.52;;;27.70;46.70;;;;;;5076140;28;20164;-87
2022/06/29 13:09:28;;;;;;;6.88;1.55;;;27.40;45.20;;;;;;5076350;28;20259;-88
2022/06/29 13:11:53;;;;;;;5.40;1.73;;;27.30;44.20;;;;;;5076018;28;20184;-88